Time;durP1;ratioP1;P1;durP2;ratioP2;P2;SDS_P1;SDS_P2;PMS_P1;PMS_P2;Temp;Humidity;BMP_temperature;BMP_pressure;BME280_temperature;BME280_humidity;BME280_pressure;Samples;Min_cycle;Max_cycle;Signal;HPM_P1;HPM_P2
2023/03/12 00:00:18;;;;;;;14.63;11.77;;;;;;;3.16;55.84;99893.53;10405413;28;20199;-70
2023/03/12 00:05:21;;;;;;;14.32;12.38;;;;;;;3.03;56.16;99895.13;10404004;28;20549;-71
2023/03/12 00:10:22;;;;;;;13.93;12.15;;;;;;;2.99;56.61;99898.88;10409871;28;20154;-68
2023/03/12 00:15:24;;;;;;;15.30;13.70;;;;;;;2.94;56.88;99895.66;10402078;28;20072;-69
2023/03/12 00:20:25;;;;;;;15.10;12.48;;;;;;;2.92;57.12;99892.25;10406797;28;20082;-73
2023/03/12 00:25:27;;;;;;;15.85;12.60;;;;;;;2.85;57.16;99904.03;10396878;28;20060;-72
2023/03/12 00:30:29;;;;;;;13.20;11.38;;;;;;;2.78;56.68;99903.53;10400087;28;20147;-69
2023/03/12 00:35:31;;;;;;;10.93;9.77;;;;;;;2.79;56.73;99903.44;10398699;28;20055;-71
2023/03/12 00:40:33;;;;;;;12.77;10.30;;;;;;;2.75;56.84;99906.31;10401260;28;20450;-67
2023/03/12 00:45:34;;;;;;;13.70;10.48;;;;;;;2.75;56.89;99901.91;10400040;28;20048;-70
2023/03/12 00:50:36;;;;;;;14.43;11.77;;;;;;;2.80;57.46;99906.91;10397905;28;20083;-71
2023/03/12 00:55:37;;;;;;;13.27;11.15;;;;;;;2.81;57.38;99903.38;10399140;28;20051;-69
2023/03/12 01:00:38;;;;;;;11.32;10.18;;;;;;;2.75;57.27;99880.03;10400498;28;20331;-71
2023/03/12 01:05:40;;;;;;;12.68;10.63;;;;;;;2.78;57.53;99885.97;10405228;28;20431;-68
2023/03/12 01:10:42;;;;;;;11.70;10.50;;;;;;;2.74;57.59;99892.31;10400098;28;20561;-69
2023/03/12 01:15:43;;;;;;;12.45;11.15;;;;;;;2.73;57.86;99902.91;10401083;28;20521;-68
2023/03/12 01:20:45;;;;;;;13.60;11.40;;;;;;;2.60;58.33;99887.81;10383916;28;20119;-67
2023/03/12 01:25:48;;;;;;;12.10;10.90;;;;;;;2.72;58.06;99898.56;10398479;28;20041;-71
2023/03/12 01:30:49;;;;;;;12.55;10.95;;;;;;;2.80;57.98;99899.88;10400891;28;20176;-71
2023/03/12 01:35:51;;;;;;;15.07;11.48;;;;;;;2.82;58.00;99900.66;10402243;28;20211;-71
2023/03/12 01:40:52;;;;;;;14.02;12.43;;;;;;;2.72;57.56;99895.94;10388451;28;20273;-71
2023/03/12 01:46:06;;;;;;;13.38;11.23;;;;;;;2.77;57.75;99897.41;10386065;28;20139;-71
2023/03/12 01:51:13;;;;;;;11.63;10.43;;;;;;;2.76;57.75;99898.34;10386989;28;20056;-73
2023/03/12 01:56:17;;;;;;;15.43;10.93;;;;;;;2.75;57.66;99896.66;10402709;28;20438;-69
2023/03/12 02:01:20;;;;;;;14.07;10.73;;;;;;;2.71;58.15;99878.50;10401350;28;20377;-69
2023/03/12 02:06:33;;;;;;;14.25;11.18;;;;;;;2.73;58.69;99877.50;10399400;28;20389;-69
2023/03/12 02:11:34;;;;;;;11.98;9.85;;;;;;;2.76;58.19;99866.81;10403184;28;20056;-72
2023/03/12 02:16:36;;;;;;;15.13;11.20;;;;;;;2.70;58.90;99872.38;10399742;28;20072;-73
2023/03/12 02:21:38;;;;;;;16.48;10.13;;;;;;;2.64;58.78;99863.06;10397390;28;20092;-70
2023/03/12 02:26:40;;;;;;;11.35;10.05;;;;;;;2.67;58.65;99862.03;10396756;28;20411;-70
2023/03/12 02:31:50;;;;;;;12.73;10.05;;;;;;;2.67;59.06;99864.66;10396389;28;20343;-70
2023/03/12 02:36:52;;;;;;;11.80;9.27;;;;;;;2.62;59.48;99878.03;10395972;28;20057;-70
2023/03/12 02:41:56;;;;;;;13.52;9.32;;;;;;;2.57;59.33;99876.63;10396866;28;20838;-72
2023/03/12 02:47:00;;;;;;;11.52;8.65;;;;;;;2.58;59.23;99873.91;10399344;28;20076;-69
2023/03/12 02:52:01;;;;;;;10.98;8.85;;;;;;;2.58;59.48;99870.41;10371970;28;20576;-69
2023/03/12 02:57:03;;;;;;;10.35;8.82;;;;;;;2.51;59.92;99855.91;10397057;28;20063;-71
2023/03/12 03:02:05;;;;;;;10.23;7.90;;;;;;;2.56;59.94;99859.16;10407562;28;20403;-69
2023/03/12 03:07:07;;;;;;;10.02;8.35;;;;;;;2.57;59.96;99845.91;10403562;28;20509;-70
2023/03/12 03:12:08;;;;;;;13.40;7.88;;;;;;;2.57;59.92;99845.91;10404596;28;20048;-69
2023/03/12 03:17:09;;;;;;;10.88;8.88;;;;;;;2.60;60.05;99845.75;10404664;28;20059;-71
2023/03/12 03:22:11;;;;;;;9.45;8.15;;;;;;;2.50;60.20;99833.19;10387663;28;20072;-72
2023/03/12 03:27:12;;;;;;;10.20;8.80;;;;;;;2.64;60.28;99841.16;10384600;28;20045;-70
2023/03/12 03:32:14;;;;;;;9.60;8.35;;;;;;;2.64;60.33;99828.91;10400491;28;20381;-71
2023/03/12 03:37:16;;;;;;;10.68;8.05;;;;;;;2.63;59.95;99835.06;10401951;28;20282;-72
2023/03/12 03:42:17;;;;;;;8.60;7.40;;;;;;;2.59;59.99;99832.69;10384471;28;20557;-71
2023/03/12 03:47:19;;;;;;;8.00;7.18;;;;;;;2.52;60.31;99832.16;10403282;28;20053;-69
2023/03/12 03:52:20;;;;;;;8.35;7.45;;;;;;;2.61;59.98;99836.94;10401908;28;20475;-71
2023/03/12 03:57:22;;;;;;;7.85;6.68;;;;;;;2.59;59.94;99832.69;10402879;28;20052;-70
2023/03/12 04:02:25;;;;;;;10.48;6.50;;;;;;;2.62;59.86;99841.25;10400972;28;20049;-69
2023/03/12 04:07:27;;;;;;;7.45;6.40;;;;;;;2.66;60.07;99836.69;10397756;28;20095;-67
2023/03/12 04:12:28;;;;;;;10.27;7.70;;;;;;;2.61;60.45;99828.19;10398064;28;20045;-69
2023/03/12 04:17:30;;;;;;;8.85;7.00;;;;;;;2.69;60.30;99833.91;10412219;28;20056;-68
2023/03/12 04:22:32;;;;;;;9.15;7.85;;;;;;;2.67;60.23;99832.28;10409712;28;20496;-71
2023/03/12 04:27:34;;;;;;;9.68;7.95;;;;;;;2.74;59.87;99836.28;10402266;28;20052;-71
2023/03/12 04:32:35;;;;;;;9.30;7.95;;;;;;;2.71;60.05;99853.06;10403300;28;20072;-74
2023/03/12 04:37:37;;;;;;;13.05;8.32;;;;;;;2.70;60.20;99848.72;10408553;28;20066;-69
2023/03/12 04:42:38;;;;;;;10.45;8.82;;;;;;;2.75;60.63;99845.88;10381593;28;20053;-68
2023/03/12 04:47:40;;;;;;;12.88;8.32;;;;;;;2.81;59.80;99858.66;10387211;28;20340;-70
2023/03/12 04:52:41;;;;;;;9.15;6.90;;;;;;;2.81;60.12;99849.00;10378820;28;20150;-69
2023/03/12 04:57:42;;;;;;;10.18;7.82;;;;;;;2.78;59.97;99849.16;10401602;28;20158;-68
2023/03/12 05:02:44;;;;;;;11.77;7.95;;;;;;;2.78;59.97;99828.13;10387854;28;20073;-71
2023/03/12 05:07:45;;;;;;;10.27;7.28;;;;;;;2.77;60.01;99836.94;10405829;28;20211;-71
2023/03/12 05:12:47;;;;;;;11.15;7.50;;;;;;;2.78;60.04;99833.41;10405892;28;20057;-68
2023/03/12 05:17:48;;;;;;;11.02;8.30;;;;;;;2.80;59.92;99810.50;10405515;28;20061;-68
2023/03/12 05:22:49;;;;;;;9.30;8.07;;;;;;;2.69;59.85;99797.09;10412761;28;20799;-67
2023/03/12 05:27:51;;;;;;;8.48;7.13;;;;;;;2.78;60.29;99795.75;10409818;28;20045;-72
2023/03/12 05:32:52;;;;;;;8.43;7.50;;;;;;;2.78;59.94;99788.72;10391700;28;20138;-72
2023/03/12 05:37:54;;;;;;;8.88;6.95;;;;;;;2.67;60.14;99770.03;10386422;28;20057;-71
2023/03/12 05:42:55;;;;;;;6.90;6.20;;;;;;;2.73;60.07;99790.75;10403559;28;20556;-71
2023/03/12 05:47:57;;;;;;;9.50;6.53;;;;;;;2.78;60.02;99796.59;10401931;28;20715;-71
2023/03/12 05:52:58;;;;;;;7.55;5.78;;;;;;;2.88;60.14;99796.06;10399228;28;20100;-70
2023/03/12 05:58:00;;;;;;;8.93;6.75;;;;;;;2.84;60.01;99790.16;10399902;28;20052;-71
2023/03/12 06:03:01;;;;;;;8.38;6.88;;;;;;;2.92;60.19;99789.72;10398727;28;20148;-70
2023/03/12 06:08:04;;;;;;;7.82;6.05;;;;;;;2.91;59.87;99781.00;10398002;28;20049;-71
2023/03/12 06:13:06;;;;;;;9.27;6.00;;;;;;;2.98;60.28;99765.72;10394089;28;20049;-71
2023/03/12 06:18:07;;;;;;;10.00;6.57;;;;;;;3.04;59.85;99767.97;10400462;28;20103;-70
2023/03/12 06:23:10;;;;;;;7.55;6.00;;;;;;;2.90;58.95;99763.50;10397298;28;20171;-70
2023/03/12 06:28:12;;;;;;;5.78;5.10;;;;;;;2.99;58.70;99759.53;10396181;28;20087;-73
2023/03/12 06:33:13;;;;;;;6.05;4.82;;;;;;;3.01;58.72;99781.31;10375808;28;20053;-69
2023/03/12 06:38:14;;;;;;;6.78;5.30;;;;;;;3.00;58.53;99784.88;10402361;28;20053;-71
2023/03/12 06:43:16;;;;;;;7.05;5.60;;;;;;;3.05;58.70;99781.97;10398699;28;20571;-71
2023/03/12 06:48:17;;;;;;;6.55;5.00;;;;;;;3.10;58.63;99782.56;10397210;28;20053;-70
2023/03/12 06:53:20;;;;;;;6.72;5.35;;;;;;;3.18;58.42;99789.09;10395481;28;20452;-71
2023/03/12 06:58:21;;;;;;;7.93;5.05;;;;;;;3.25;58.21;99784.31;10380812;28;20064;-72
2023/03/12 07:03:23;;;;;;;6.72;5.40;;;;;;;3.32;57.69;99769.88;10395555;28;20155;-71
2023/03/12 07:08:28;;;;;;;6.32;5.65;;;;;;;3.43;58.10;99777.13;10393663;28;20053;-71
2023/03/12 07:13:30;;;;;;;;;;;;;;;3.60;56.48;99788.47;10392546;28;20052;-70
2023/03/12 07:18:31;;;;;;;6.85;4.38;;;;;;;3.67;56.75;99779.28;10395785;28;19938;-72
2023/03/12 07:23:33;;;;;;;4.82;4.10;;;;;;;3.73;57.17;99784.16;10393487;28;20061;-73
2023/03/12 07:28:34;;;;;;;8.90;4.43;;;;;;;3.76;56.00;99765.56;10393846;28;20051;-71
2023/03/12 07:33:36;;;;;;;7.68;3.97;;;;;;;3.86;55.27;99789.56;10376314;28;20499;-69
2023/03/12 07:38:37;;;;;;;7.93;3.83;;;;;;;3.95;55.65;99769.69;10371755;28;20045;-68
2023/03/12 07:43:39;;;;;;;9.85;4.32;;;;;;;4.02;54.00;99757.84;10395937;28;20723;-71
2023/03/12 07:48:40;;;;;;;4.72;3.55;;;;;;;4.17;54.42;99770.06;10393011;28;20419;-68
2023/03/12 07:53:44;;;;;;;6.47;3.40;;;;;;;4.11;56.09;99773.09;10390888;28;20047;-69
2023/03/12 07:58:46;;;;;;;7.15;3.30;;;;;;;3.87;59.01;99765.78;10393870;28;20420;-71
2023/03/12 08:03:47;;;;;;;5.82;3.30;;;;;;;3.92;60.61;99772.53;10390739;28;20060;-71
2023/03/12 08:08:49;;;;;;;5.50;3.28;;;;;;;3.79;61.90;99756.63;10389456;28;20617;-70
2023/03/12 08:13:51;;;;;;;5.13;3.05;;;;;;;3.74;63.41;99759.53;10386330;28;20060;-70
2023/03/12 08:18:52;;;;;;;4.68;3.58;;;;;;;3.73;65.37;99773.63;10389815;28;20049;-68
2023/03/12 08:23:53;;;;;;;5.38;3.75;;;;;;;3.66;67.09;99767.03;10385682;28;20053;-70
2023/03/12 08:28:55;;;;;;;4.75;3.60;;;;;;;3.75;68.21;99750.69;10390666;28;20064;-70
2023/03/12 08:33:56;;;;;;;5.72;3.85;;;;;;;3.81;69.17;99781.91;10387100;28;20107;-69
2023/03/12 08:38:57;;;;;;;5.65;3.75;;;;;;;3.76;70.67;99776.09;10375652;28;20202;-68
2023/03/12 08:43:59;;;;;;;4.40;4.00;;;;;;;3.56;72.79;99785.19;10403338;28;20061;-69
2023/03/12 08:49:02;;;;;;;6.57;4.22;;;;;;;3.50;74.17;99778.47;10414275;28;20088;-70
2023/03/12 08:54:04;;;;;;;7.70;4.45;;;;;;;3.53;74.69;99765.13;10408856;28;20064;-70
2023/03/12 08:59:06;;;;;;;7.60;4.43;;;;;;;3.61;74.93;99764.69;10413134;28;20130;-69
2023/03/12 09:04:07;;;;;;;4.97;4.47;;;;;;;3.67;75.43;99763.47;10419701;28;20060;-68
2023/03/12 09:09:09;;;;;;;7.55;5.25;;;;;;;3.72;75.73;99767.53;10400447;28;20708;-75
2023/03/12 09:14:10;;;;;;;7.00;6.30;;;;;;;3.59;77.06;99763.06;10388510;28;21054;-71
2023/03/12 09:19:31;;;;;;;6.97;6.28;;;;;;;3.53;77.76;99762.50;10384835;28;20080;-70
2023/03/12 09:24:33;;;;;;;7.40;6.70;;;;;;;3.49;78.40;99770.69;10394165;28;20061;-70
2023/03/12 09:29:35;;;;;;;9.88;7.22;;;;;;;3.47;79.04;99783.94;10378212;28;20052;-69
2023/03/12 09:34:46;;;;;;;10.43;8.30;;;;;;;3.48;79.52;99774.25;10405293;28;20049;-71
2023/03/12 09:39:49;;;;;;;12.18;9.30;;;;;;;3.52;80.33;99763.44;10432217;28;20111;-69
2023/03/12 09:44:54;;;;;;;11.52;10.50;;;;;;;3.57;80.01;99754.44;10429407;28;20056;-71
2023/03/12 09:50:14;;;;;;;10.88;9.65;;;;;;;3.53;80.00;99761.69;10418441;28;20138;-70
2023/03/12 09:55:20;;;;;;;12.90;11.60;;;;;;;3.62;80.28;99776.91;10419393;28;20147;-73
2023/03/12 10:00:27;;;;;;;13.15;11.38;;;;;;;3.48;80.43;99761.06;10398777;28;20061;-71
2023/03/12 10:05:53;;;;;;;15.35;12.55;;;;;;;3.61;80.64;99758.59;10385910;28;20145;-69
2023/03/12 10:11:06;;;;;;;16.45;13.85;;;;;;;3.62;80.89;99776.91;10388175;28;20060;-69
2023/03/12 10:16:20;;;;;;;14.85;13.13;;;;;;;3.50;81.19;99773.22;10386101;28;20082;-72
2023/03/12 10:21:37;;;;;;;17.63;14.82;;;;;;;3.39;83.13;99770.34;10390709;28;20113;-70
2023/03/12 10:26:43;;;;;;;17.48;15.60;;;;;;;3.49;82.71;99782.03;10389266;28;20054;-73
2023/03/12 10:31:50;;;;;;;18.23;15.77;;;;;;;3.56;82.89;99774.66;10390417;28;20060;-71
2023/03/12 10:36:57;;;;;;;19.40;16.08;;;;;;;3.59;84.06;99776.22;10386091;28;20060;-72
2023/03/12 10:42:00;;;;;;;20.38;16.58;;;;;;;3.66;84.24;99756.50;10375155;28;20051;-71
2023/03/12 10:47:25;;;;;;;19.65;16.63;;;;;;;3.93;83.58;99768.97;10390586;28;20103;-70
2023/03/12 10:52:27;;;;;;;21.73;17.45;;;;;;;4.04;83.25;99756.84;10386200;28;20064;-71
2023/03/12 10:57:39;;;;;;;23.63;18.55;;;;;;;4.17;83.20;99738.47;10387987;28;20103;-70
2023/03/12 11:02:44;;;;;;;18.55;16.65;;;;;;;4.38;82.52;99740.72;10373022;28;20540;-70
2023/03/12 11:07:46;;;;;;;;;;;;;;;4.33;83.21;99738.38;10390253;28;20049;-71
2023/03/12 11:13:22;;;;;;;20.13;15.98;;;;;;;4.33;83.34;99745.44;10391139;28;19925;-70
2023/03/12 11:18:26;;;;;;;20.17;15.98;;;;;;;4.49;83.88;99746.16;10392701;28;20051;-71
2023/03/12 11:23:29;;;;;;;19.45;17.38;;;;;;;4.64;83.08;99754.88;10380876;28;20585;-71
2023/03/12 11:28:36;;;;;;;19.73;16.77;;;;;;;4.57;83.35;99740.41;10398152;28;20755;-72
2023/03/12 11:33:37;;;;;;;18.35;15.95;;;;;;;4.76;83.01;99751.47;10400359;28;20072;-71
2023/03/12 11:38:47;;;;;;;19.70;16.48;;;;;;;4.78;82.95;99754.00;10395696;28;20516;-72
2023/03/12 11:44:14;;;;;;;16.88;15.18;;;;;;;4.77;83.39;99754.94;10394858;28;20103;-69
2023/03/12 11:49:34;;;;;;;21.20;19.10;;;;;;;4.74;83.75;99755.13;10394714;28;20235;-72
2023/03/12 11:54:47;;;;;;;20.85;18.70;;;;;;;4.82;83.72;99755.50;10377184;28;20049;-70
2023/03/12 11:59:55;;;;;;;19.58;17.80;;;;;;;4.89;83.83;99735.66;10393261;28;20145;-68
2023/03/12 12:05:08;;;;;;;17.95;16.25;;;;;;;5.14;82.44;99729.63;10393725;28;20048;-68
2023/03/12 12:10:28;;;;;;;17.90;16.30;;;;;;;5.20;82.14;99728.38;10392338;28;20370;-70
2023/03/12 12:15:42;;;;;;;17.15;15.45;;;;;;;5.22;82.26;99723.84;10397566;28;20076;-70
2023/03/12 12:21:12;;;;;;;16.85;15.10;;;;;;;5.45;82.20;99716.16;10393724;28;20389;-70
2023/03/12 12:26:55;;;;;;;17.85;15.95;;;;;;;5.73;80.62;99706.38;10374193;28;20848;-70
2023/03/12 12:31:59;;;;;;;17.75;16.05;;;;;;;6.19;78.64;99688.16;10366391;28;20089;-69
2023/03/12 12:37:18;;;;;;;20.20;18.13;;;;;;;6.60;77.46;99674.72;10387786;28;20067;-72
2023/03/12 12:42:25;;;;;;;16.73;15.18;;;;;;;6.41;77.97;99680.50;10373410;28;20140;-72
2023/03/12 12:47:39;;;;;;;19.80;16.92;;;;;;;6.53;78.45;99679.59;10392686;28;20525;-72
2023/03/12 12:52:41;;;;;;;18.65;16.55;;;;;;;7.70;75.92;99670.84;10375521;28;20350;-71
2023/03/12 12:57:55;;;;;;;16.88;15.02;;;;;;;13.01;56.45;99657.72;10373967;28;20262;-74
2023/03/12 13:02:57;;;;;;;13.60;12.32;;;;;;;14.89;49.76;99651.66;10392529;28;20249;-74
2023/03/12 13:07:59;;;;;;;12.98;11.68;;;;;;;16.70;44.66;99669.16;10392589;28;20060;-73
2023/03/12 13:13:19;;;;;;;12.85;11.55;;;;;;;16.33;43.83;99668.84;10395745;28;20079;-74
2023/03/12 13:18:27;;;;;;;12.27;11.18;;;;;;;13.12;52.35;99667.34;10390802;28;20049;-74
2023/03/12 13:23:46;;;;;;;13.35;12.05;;;;;;;11.42;57.99;99651.66;10376027;28;20408;-72
2023/03/12 13:28:53;;;;;;;13.02;11.82;;;;;;;10.98;60.75;99653.97;10377861;28;20132;-70
2023/03/12 13:34:18;;;;;;;13.70;12.43;;;;;;;11.91;58.14;99636.34;10392015;28;20549;-72
2023/03/12 13:39:35;;;;;;;13.77;12.25;;;;;;;10.82;62.51;99638.56;10389102;28;20311;-72
2023/03/12 13:44:39;;;;;;;13.40;12.10;;;;;;;10.41;64.89;99647.47;10390570;28;20151;-73
2023/03/12 13:49:44;;;;;;;13.27;11.97;;;;;;;10.05;66.45;99643.59;10420756;28;20044;-72
2023/03/12 13:54:49;;;;;;;14.65;13.35;;;;;;;9.66;68.67;99651.41;10411644;28;20392;-70
2023/03/12 13:59:51;;;;;;;12.85;11.70;;;;;;;9.41;70.25;99634.06;10390735;28;20052;-71
2023/03/12 14:04:54;;;;;;;12.95;11.75;;;;;;;9.39;70.81;99650.13;10390113;28;20053;-70
2023/03/12 14:10:09;;;;;;;12.45;11.30;;;;;;;9.20;72.42;99643.75;10389693;28;20045;-70
2023/03/12 14:15:26;;;;;;;13.50;12.32;;;;;;;8.99;74.30;99645.53;10388906;28;20590;-71
2023/03/12 14:20:29;;;;;;;12.90;11.60;;;;;;;9.03;74.17;99634.53;10374538;28;20075;-72
2023/03/12 14:25:35;;;;;;;13.95;12.55;;;;;;;9.09;74.69;99619.88;10371355;28;20370;-72
2023/03/12 14:30:36;;;;;;;11.65;10.68;;;;;;;9.06;75.54;99620.16;10373666;28;20098;-73
2023/03/12 14:35:49;;;;;;;14.23;12.70;;;;;;;9.00;76.59;99620.66;10386349;28;20354;-71
2023/03/12 14:40:59;;;;;;;15.95;13.10;;;;;;;8.97;77.08;99623.59;10385314;28;20092;-72
2023/03/12 14:46:13;;;;;;;14.00;12.68;;;;;;;8.95;77.08;99605.13;10390067;28;20059;-69
2023/03/12 14:51:34;;;;;;;13.43;12.20;;;;;;;9.04;77.72;99608.84;10388490;28;20111;-71
2023/03/12 14:56:44;;;;;;;50.17;33.97;;;;;;;9.10;77.50;99608.31;10391668;28;20450;-73
2023/03/12 15:01:46;;;;;;;19.15;16.75;;;;;;;9.19;77.44;99599.56;10394620;28;20125;-71
2023/03/12 15:06:51;;;;;;;13.30;12.07;;;;;;;9.30;76.39;99608.44;10394336;28;20931;-74
2023/03/12 15:11:57;;;;;;;16.15;14.52;;;;;;;9.33;76.96;99598.38;10392987;28;20052;-71
2023/03/12 15:16:59;;;;;;;14.70;13.40;;;;;;;9.42;76.87;99612.69;10395148;28;20056;-71
2023/03/12 15:22:02;;;;;;;13.98;12.60;;;;;;;9.45;75.61;99585.84;10394560;28;20078;-71
2023/03/12 15:27:22;;;;;;;15.05;13.65;;;;;;;9.55;75.86;99572.63;10392493;28;20540;-70
2023/03/12 15:32:25;;;;;;;14.52;13.15;;;;;;;9.64;75.36;99566.50;10397794;28;20056;-71
2023/03/12 15:37:36;;;;;;;15.88;13.77;;;;;;;9.69;75.00;99566.94;10398588;28;20060;-73
2023/03/12 15:42:42;;;;;;;15.77;13.70;;;;;;;9.77;75.21;99557.44;10381966;28;20065;-73
2023/03/12 15:47:45;;;;;;;14.38;12.88;;;;;;;9.69;75.52;99566.09;10405481;28;20454;-74
2023/03/12 15:53:06;;;;;;;15.77;14.18;;;;;;;9.61;75.73;99560.59;10408308;28;20049;-71
2023/03/12 15:58:27;;;;;;;14.45;13.00;;;;;;;9.54;75.80;99566.44;10396994;28;20057;-74
2023/03/12 16:03:28;;;;;;;14.82;13.35;;;;;;;9.44;75.88;99578.00;10390503;28;20060;-72
2023/03/12 16:08:54;;;;;;;15.43;14.00;;;;;;;9.50;75.16;99557.09;10394616;28;20053;-72
2023/03/12 16:14:05;;;;;;;14.20;12.65;;;;;;;9.59;75.12;99575.84;10383564;28;20055;-72
2023/03/12 16:19:19;;;;;;;14.27;12.95;;;;;;;9.63;75.46;99577.25;10395516;28;20055;-74
2023/03/12 16:24:21;;;;;;;14.35;12.88;;;;;;;9.66;75.40;99577.00;10380419;28;20048;-72
2023/03/12 16:29:30;;;;;;;16.15;12.43;;;;;;;9.68;75.07;99585.66;10392148;28;21548;-74
2023/03/12 16:34:33;;;;;;;14.68;13.32;;;;;;;9.63;75.41;99566.63;10380079;28;20056;-73
2023/03/12 16:39:35;;;;;;;13.75;12.45;;;;;;;9.66;75.67;99577.81;10389833;28;20198;-70
2023/03/12 16:44:36;;;;;;;16.15;14.25;;;;;;;9.64;75.67;99592.25;10390435;28;20060;-71
2023/03/12 16:49:38;;;;;;;13.82;12.43;;;;;;;9.66;75.79;99592.94;10385659;28;20045;-72
2023/03/12 16:54:39;;;;;;;13.43;12.10;;;;;;;9.66;75.72;99599.09;10381442;28;20126;-71
2023/03/12 16:59:41;;;;;;;13.10;11.77;;;;;;;9.58;75.91;99584.78;10386722;28;20492;-72
2023/03/12 17:04:42;;;;;;;14.15;12.57;;;;;;;9.58;75.93;99598.06;10392265;28;20158;-72
2023/03/12 17:09:44;;;;;;;12.75;11.55;;;;;;;9.58;75.54;99579.47;10392528;28;20051;-71
2023/03/12 17:14:45;;;;;;;14.52;12.75;;;;;;;9.62;75.99;99588.84;10392102;28;20057;-72
2023/03/12 17:19:47;;;;;;;14.25;12.88;;;;;;;9.55;76.72;99584.09;10391766;28;20510;-72
2023/03/12 17:24:49;;;;;;;18.02;13.15;;;;;;;9.47;77.48;99605.19;10395528;28;20048;-73
2023/03/12 17:29:50;;;;;;;19.65;14.90;;;;;;;9.49;78.12;99613.84;10385804;28;20138;-72
2023/03/12 17:34:56;;;;;;;17.17;12.80;;;;;;;9.50;78.02;99620.00;10389867;28;21759;-71
2023/03/12 17:40:00;;;;;;;14.55;11.57;;;;;;;9.53;77.50;99619.72;10391579;28;20415;-70
2023/03/12 17:45:03;;;;;;;19.50;11.27;;;;;;;9.57;77.62;99626.47;10389523;28;20079;-72
2023/03/12 17:50:06;;;;;;;15.35;9.50;;;;;;;9.58;77.05;99621.97;10395732;28;20048;-70
2023/03/12 17:55:08;;;;;;;17.70;10.40;;;;;;;9.58;77.24;99627.28;10375520;28;20060;-71
2023/03/12 18:00:12;;;;;;;18.25;10.70;;;;;;;9.57;76.96;99642.41;10406712;28;20128;-73
2023/03/12 18:05:14;;;;;;;17.65;9.77;;;;;;;9.61;76.69;99651.81;10398006;28;20132;-70
2023/03/12 18:10:16;;;;;;;17.95;8.63;;;;;;;9.63;75.85;99651.66;10406283;28;20055;-71
2023/03/12 18:15:18;;;;;;;13.95;8.35;;;;;;;9.64;75.37;99659.50;10393933;28;20052;-71
2023/03/12 18:20:20;;;;;;;14.95;7.38;;;;;;;9.65;75.05;99649.72;10392407;28;20053;-71
2023/03/12 18:25:38;;;;;;;14.68;8.15;;;;;;;9.75;74.16;99665.72;10377827;28;20139;-69
2023/03/12 18:30:39;;;;;;;15.15;7.53;;;;;;;9.77;73.25;99653.97;10393204;28;20053;-69
2023/03/12 18:35:44;;;;;;;8.70;4.82;;;;;;;9.86;72.01;99650.53;10396534;28;20056;-70
2023/03/12 18:40:46;;;;;;;12.45;5.07;;;;;;;9.89;71.37;99647.59;10399747;28;20054;-71
2023/03/12 18:45:48;;;;;;;12.23;4.93;;;;;;;9.93;70.67;99657.97;10397524;28;20053;-70
2023/03/12 18:50:50;;;;;;;11.52;4.38;;;;;;;10.02;70.15;99663.31;10374367;28;20153;-70
2023/03/12 18:55:56;;;;;;;13.85;4.10;;;;;;;10.08;68.61;99652.13;10400047;28;20057;-69
2023/03/12 19:00:58;;;;;;;12.18;4.43;;;;;;;10.13;68.32;99654.38;10396483;28;20327;-70
2023/03/12 19:06:03;;;;;;;11.23;3.45;;;;;;;10.18;67.79;99668.13;10397309;28;20251;-70
2023/03/12 19:11:06;;;;;;;12.85;4.07;;;;;;;10.17;67.91;99679.72;10379164;28;20128;-72
2023/03/12 19:16:10;;;;;;;13.33;4.50;;;;;;;10.20;67.96;99678.63;10396320;28;20049;-72
2023/03/12 19:21:12;;;;;;;11.30;3.50;;;;;;;10.22;67.57;99677.53;10394517;28;20496;-72
2023/03/12 19:26:13;;;;;;;23.92;5.18;;;;;;;10.23;67.48;99670.38;10396081;28;20064;-70
2023/03/12 19:31:15;;;;;;;12.02;4.00;;;;;;;10.23;67.22;99660.56;10395591;28;20487;-70
2023/03/12 19:36:16;;;;;;;14.07;4.32;;;;;;;10.27;67.18;99667.31;10393199;28;20610;-71
2023/03/12 19:41:18;;;;;;;13.63;4.40;;;;;;;10.23;67.39;99663.22;10395505;28;20263;-71
2023/03/12 19:46:19;;;;;;;11.25;4.35;;;;;;;10.29;67.43;99666.34;10391227;28;20451;-71
2023/03/12 19:51:22;;;;;;;11.27;3.95;;;;;;;10.29;67.48;99656.53;10395654;28;20597;-71
2023/03/12 19:56:23;;;;;;;11.07;4.18;;;;;;;10.26;67.52;99654.97;10391743;28;20194;-70
2023/03/12 20:01:25;;;;;;;14.10;4.30;;;;;;;10.31;67.61;99654.56;10389746;28;20095;-70
2023/03/12 20:06:26;;;;;;;10.32;3.50;;;;;;;10.32;67.73;99660.75;10369252;28;20063;-71
2023/03/12 20:11:27;;;;;;;11.23;3.30;;;;;;;10.33;67.81;99665.06;10375007;28;20576;-71
2023/03/12 20:16:30;;;;;;;10.48;4.00;;;;;;;10.34;67.90;99642.84;10394318;28;20551;-72
2023/03/12 20:21:31;;;;;;;12.45;5.10;;;;;;;10.30;68.14;99638.75;10386399;28;20268;-71
2023/03/12 20:26:33;;;;;;;14.48;3.40;;;;;;;10.32;68.30;99640.28;10372830;28;20060;-69
2023/03/12 20:31:34;;;;;;;12.80;3.75;;;;;;;10.27;68.37;99630.06;10392787;28;20052;-73
2023/03/12 20:36:35;;;;;;;15.27;4.30;;;;;;;10.27;68.67;99624.75;10373454;28;20150;-74
2023/03/12 20:41:37;;;;;;;10.75;3.92;;;;;;;10.27;68.57;99624.75;10393764;28;20045;-72
2023/03/12 20:46:38;;;;;;;15.77;4.78;;;;;;;10.27;68.63;99624.75;10384969;28;20045;-72
2023/03/12 20:51:41;;;;;;;11.07;3.63;;;;;;;10.26;68.62;99624.88;10370998;28;20563;-72
2023/03/12 20:56:43;;;;;;;13.68;3.97;;;;;;;10.27;68.60;99638.03;10390764;28;20474;-71
2023/03/12 21:01:45;;;;;;;10.65;3.25;;;;;;;10.26;68.58;99620.41;10395254;28;20122;-72
2023/03/12 21:06:46;;;;;;;13.85;4.55;;;;;;;10.24;68.66;99619.69;10390358;28;20045;-71
2023/03/12 21:11:49;;;;;;;13.82;4.13;;;;;;;10.28;68.56;99620.25;10370110;28;20051;-71
2023/03/12 21:16:50;;;;;;;11.10;3.30;;;;;;;10.22;68.66;99605.72;10391362;28;20268;-72
2023/03/12 21:21:52;;;;;;;12.90;3.97;;;;;;;10.17;68.60;99604.44;10385337;28;20495;-71
2023/03/12 21:26:54;;;;;;;10.10;3.50;;;;;;;10.14;68.07;99594.91;10370874;28;21250;-72
2023/03/12 21:31:56;;;;;;;11.75;3.85;;;;;;;10.23;68.03;99604.72;10375958;28;20047;-73
2023/03/12 21:36:57;;;;;;;13.02;4.20;;;;;;;10.22;68.07;99611.03;10392786;28;20091;-73
2023/03/12 21:41:59;;;;;;;11.88;3.50;;;;;;;10.17;68.34;99599.94;10370397;28;20446;-73
2023/03/12 21:47:01;;;;;;;11.13;3.72;;;;;;;10.17;68.40;99596.44;10367609;28;20048;-73
2023/03/12 21:52:03;;;;;;;12.77;4.57;;;;;;;10.16;68.83;99589.44;10372651;28;20057;-77
2023/03/12 21:57:05;;;;;;;10.07;4.25;;;;;;;10.08;68.68;99582.16;10388017;28;20772;-73
2023/03/12 22:02:10;;;;;;;13.98;4.32;;;;;;;10.08;68.82;99575.00;10388309;28;20049;-71
2023/03/12 22:07:12;;;;;;;11.77;3.80;;;;;;;10.07;68.85;99570.69;10388004;28;20052;-72
2023/03/12 22:12:13;;;;;;;12.55;4.60;;;;;;;10.11;68.88;99573.06;10394427;28;20061;-71
2023/03/12 22:17:16;;;;;;;12.85;4.80;;;;;;;10.11;68.84;99571.25;10394528;28;20522;-71
2023/03/12 22:22:17;;;;;;;14.23;4.57;;;;;;;10.07;69.03;99548.56;10392384;28;20076;-73
2023/03/12 22:27:18;;;;;;;11.38;3.95;;;;;;;10.12;70.33;99546.34;10390295;28;20157;-70
2023/03/12 22:32:20;;;;;;;8.90;2.88;;;;;;;10.05;69.50;99534.56;10393169;28;20113;-71
2023/03/12 22:37:21;;;;;;;10.90;4.40;;;;;;;10.11;69.74;99542.00;10362683;28;20063;-71
2023/03/12 22:42:23;;;;;;;13.15;3.42;;;;;;;10.14;69.26;99539.06;10395860;28;20364;-70
2023/03/12 22:47:24;;;;;;;12.43;4.30;;;;;;;10.12;69.10;99533.03;10385161;28;20067;-68
2023/03/12 22:52:26;;;;;;;13.35;3.67;;;;;;;10.07;69.34;99521.97;10411209;28;20057;-69
2023/03/12 22:57:27;;;;;;;11.80;4.75;;;;;;;10.12;69.29;99519.75;10387707;28;20063;-68
2023/03/12 23:02:28;;;;;;;14.27;4.07;;;;;;;10.11;69.50;99514.56;10401240;28;20067;-70
2023/03/12 23:07:30;;;;;;;11.35;3.70;;;;;;;10.06;69.95;99496.38;10419792;28;20722;-72
2023/03/12 23:12:32;;;;;;;11.05;3.40;;;;;;;10.04;69.85;99501.81;10428752;28;20049;-73
2023/03/12 23:17:33;;;;;;;10.60;3.13;;;;;;;10.04;69.96;99496.50;10445504;28;20045;-71
2023/03/12 23:22:34;;;;;;;8.88;3.33;;;;;;;10.04;70.43;99506.28;10438317;28;20045;-71
2023/03/12 23:27:36;;;;;;;13.98;4.43;;;;;;;10.02;70.84;99486.97;10425276;28;20643;-73